Dokai — JPEF — position and weather

sailwx.info

Track history (hours):
 
Tides and Currents Weather Stations Pressure Air Temp Water Temp Dewpoint Dewpoint Depression Visibility Wind Speed Wind Dir Waves Ship Positions

Dokai

Last reported at 2018-May-31 09:01 UTC. Time now 2018-Jun-22 17:06 UTC.
Position N 33°53' E 134°59'.
Warning: this ship's position is 22 days out of date.

Length 40 m; draft 4.5 m.

Type: Tug. MMSI: 431160000.

Date/timePositionNaut miles runAvg speedWind from/ knotsBaromVisibWave heightAir tempDewpointWater temp
2018-May-31 09:01N 33°53' E 134°59'0 8.4
2018-May-31 09:00N 33°53' E 134°59'4 8.2
2018-May-31 08:31N 33°57' E 134°59'4 8.6
2018-May-31 08:00N 34°01' E 134°59'4 8.5
2018-May-31 07:30N 34°05' E 134°59'4 8.7
2018-May-31 07:00N 34°10' E 134°59'4 8.3
2018-May-31 06:31N 34°14' E 134°59'510.4
2018-May-31 06:00N 34°19' E 134°59'4 8.5
2018-May-31 05:30N 34°23' E 135°02'4 8.9
2018-May-31 05:00N 34°25' E 135°06'4 9.0
2018-May-31 04:30N 34°27' E 135°11'4 8.8
2018-May-31 04:00N 34°29' E 135°16'4 9.0
2018-May-31 03:30N 34°31' E 135°21'3 5.7
2018-May-31 02:59N 34°32' E 135°24'1 0.4
2018-May-31 01:05N 34°31' E 135°24'0 0.0
2018-May-31 00:53N 34°31' E 135°24'0 0.0
2018-May-31 00:29N 34°31' E 135°24'0 0.0
2018-May-30 10:41N 34°31' E 135°24'0 0.0
2018-May-30 08:08N 34°31' E 135°24'0 0.0
2018-May-30 07:59N 34°31' E 135°24'0 0.0
2018-May-30 07:28N 34°31' E 135°24'0 0.0
2018-May-30 07:00N 34°31' E 135°24'1 2.5
2018-May-30 06:29N 34°32' E 135°24'4 7.7
2018-May-30 05:58N 34°35' E 135°21'4 7.9
2018-May-30 05:30N 34°39' E 135°19'3 6.0
2018-May-30 05:00N 34°40' E 135°16'2 3.1
2018-May-30 04:30N 34°41' E 135°14'0 0.0
2018-May-30 04:01N 34°41' E 135°14'510.1
2018-May-30 03:30N 34°39' E 135°20'510.6
2018-May-30 03:00N 34°39' E 135°26'  
Track history (hours):
 
Tides and Currents Weather Stations Pressure Air Temp Water Temp Dewpoint Dewpoint Depression Visibility Wind Speed Wind Dir Waves Ship Positions

Dokai

Last reported at 2018-May-31 09:01 UTC. Time now 2018-Jun-22 17:06 UTC.
Position N 33°53' E 134°59'.
Warning: this ship's position is 22 days out of date.

Length 40 m; draft 4.5 m.

Type: Tug. MMSI: 431160000.

Date/timePositionNaut miles runAvg speedWind from/ knotsBaromVisibWave heightAir tempDewpointWater temp
2018-May-31 09:01N 33°53' E 134°59'0 8.4
2018-May-31 09:00N 33°53' E 134°59'4 8.2
2018-May-31 08:31N 33°57' E 134°59'4 8.6
2018-May-31 08:00N 34°01' E 134°59'4 8.5
2018-May-31 07:30N 34°05' E 134°59'4 8.7
2018-May-31 07:00N 34°10' E 134°59'4 8.3
2018-May-31 06:31N 34°14' E 134°59'510.4
2018-May-31 06:00N 34°19' E 134°59'4 8.5
2018-May-31 05:30N 34°23' E 135°02'4 8.9
2018-May-31 05:00N 34°25' E 135°06'4 9.0
2018-May-31 04:30N 34°27' E 135°11'4 8.8
2018-May-31 04:00N 34°29' E 135°16'4 9.0
2018-May-31 03:30N 34°31' E 135°21'3 5.7
2018-May-31 02:59N 34°32' E 135°24'1 0.4
2018-May-31 01:05N 34°31' E 135°24'0 0.0
2018-May-31 00:53N 34°31' E 135°24'0 0.0
2018-May-31 00:29N 34°31' E 135°24'0 0.0
2018-May-30 10:41N 34°31' E 135°24'0 0.0
2018-May-30 08:08N 34°31' E 135°24'0 0.0
2018-May-30 07:59N 34°31' E 135°24'0 0.0
2018-May-30 07:28N 34°31' E 135°24'0 0.0
2018-May-30 07:00N 34°31' E 135°24'1 2.5
2018-May-30 06:29N 34°32' E 135°24'4 7.7
2018-May-30 05:58N 34°35' E 135°21'4 7.9
2018-May-30 05:30N 34°39' E 135°19'3 6.0
2018-May-30 05:00N 34°40' E 135°16'2 3.1
2018-May-30 04:30N 34°41' E 135°14'0 0.0
2018-May-30 04:01N 34°41' E 135°14'510.1
2018-May-30 03:30N 34°39' E 135°20'510.6
2018-May-30 03:00N 34°39' E 135°26'  

Dump ship's entire track history